createdAt,value
2022-08-26T00:00:20.243Z,11.90
2022-08-26T00:03:03.786Z,5.40
2022-08-26T00:05:32.414Z,5.40
2022-08-26T00:08:00.843Z,3.60
2022-08-26T00:10:29.778Z,8.80
2022-08-26T00:12:59.357Z,3.90
2022-08-26T00:15:56.880Z,5.20
2022-08-26T00:18:25.966Z,7.50
2022-08-26T00:20:55.141Z,11.70
2022-08-26T00:23:24.381Z,3.90
2022-08-26T00:25:54.976Z,5.30
2022-08-26T00:28:26.646Z,5.30
2022-08-26T00:30:57.691Z,5.70
2022-08-26T00:33:26.037Z,4.20
2022-08-26T00:35:54.465Z,5.30
2022-08-26T00:38:24.191Z,3.50
2022-08-26T00:40:55.828Z,14.20
2022-08-26T00:43:26.786Z,8.80
2022-08-26T00:46:06.602Z,3.90
2022-08-26T00:48:37.779Z,5.10
2022-08-26T00:51:17.153Z,8.20
2022-08-26T00:53:53.791Z,6.70
2022-08-26T00:56:30.133Z,6.10
2022-08-26T00:59:02.261Z,3.40
2022-08-26T01:01:33.276Z,3.80
2022-08-26T01:04:02.285Z,3.20
2022-08-26T01:06:31.628Z,3.40
2022-08-26T01:09:00.181Z,6.40
2022-08-26T01:11:28.629Z,5.70
2022-08-26T01:13:59.663Z,10.20
2022-08-26T01:16:30.828Z,8.50
2022-08-26T01:19:06.635Z,6.70
2022-08-26T01:21:44.193Z,12.90
2022-08-26T01:24:14.024Z,4.40
2022-08-26T01:26:44.896Z,4.60
2022-08-26T01:29:17.952Z,7.40
2022-08-26T01:31:52.465Z,3.10
2022-08-26T01:34:26.125Z,4.00
2022-08-26T01:37:15.497Z,7.70
2022-08-26T01:39:49.122Z,7.50
2022-08-26T01:42:20.369Z,4.60
2022-08-26T01:44:57.438Z,4.80
2022-08-26T01:47:46.936Z,4.80
2022-08-26T01:50:27.774Z,5.80
2022-08-26T01:53:00.399Z,4.00
2022-08-26T01:55:33.215Z,4.50
2022-08-26T01:58:08.308Z,6.30
2022-08-26T02:00:38.226Z,8.00
2022-08-26T02:03:17.445Z,7.20
2022-08-26T02:05:51.308Z,11.90
2022-08-26T02:08:37.769Z,5.10
2022-08-26T02:11:07.718Z,3.60
2022-08-26T02:13:46.613Z,5.40
2022-08-26T02:16:22.385Z,5.70
2022-08-26T02:18:55.824Z,7.00
2022-08-26T02:21:25.042Z,5.40
2022-08-26T02:23:55.998Z,6.60
2022-08-26T02:26:27.034Z,12.30
2022-08-26T02:29:31.812Z,9.90
2022-08-26T02:32:00.993Z,10.20
2022-08-26T02:34:32.169Z,5.30
2022-08-26T02:37:06.522Z,5.40
2022-08-26T02:39:37.111Z,2.70
2022-08-26T02:42:06.387Z,5.90
2022-08-26T02:44:35.315Z,5.00
2022-08-26T02:47:04.619Z,9.40
2022-08-26T02:49:33.749Z,3.20
2022-08-26T02:52:02.186Z,5.30
2022-08-26T02:54:31.724Z,9.10
2022-08-26T02:57:01.942Z,6.20
2022-08-26T02:59:32.123Z,6.90
2022-08-26T03:02:00.664Z,5.30
2022-08-26T03:04:30.686Z,4.50
2022-08-26T03:07:02.772Z,7.10
2022-08-26T03:09:32.189Z,5.00
2022-08-26T03:12:01.461Z,9.90
2022-08-26T03:14:30.565Z,5.80
2022-08-26T03:16:59.192Z,4.70
2022-08-26T03:19:27.690Z,9.20
2022-08-26T03:21:57.891Z,5.70
2022-08-26T03:24:27.012Z,6.60
2022-08-26T03:26:55.420Z,4.20
2022-08-26T03:29:43.335Z,5.90
2022-08-26T03:32:12.544Z,4.10
2022-08-26T03:34:40.970Z,8.10
2022-08-26T03:37:10.175Z,6.60
2022-08-26T03:39:38.594Z,7.40
2022-08-26T03:42:09.387Z,8.20
2022-08-26T03:44:42.230Z,8.40
2022-08-26T03:47:11.234Z,7.00
2022-08-26T03:49:39.813Z,7.40
2022-08-26T03:52:08.199Z,7.70
2022-08-26T03:54:36.879Z,5.50
2022-08-26T03:57:05.386Z,6.20
2022-08-26T03:59:34.234Z,3.60
2022-08-26T04:02:02.756Z,6.10
2022-08-26T04:04:31.400Z,5.20
2022-08-26T04:07:00.568Z,3.30
2022-08-26T04:09:29.153Z,7.60
2022-08-26T04:11:58.783Z,8.60
2022-08-26T04:14:28.382Z,6.70
2022-08-26T04:16:57.257Z,11.10
2022-08-26T04:19:27.155Z,19.00
2022-08-26T04:21:55.461Z,6.40
2022-08-26T04:24:26.178Z,11.50
2022-08-26T04:26:56.876Z,13.20
2022-08-26T04:29:26.992Z,9.50
2022-08-26T04:31:56.020Z,12.70
2022-08-26T04:34:28.342Z,7.30
2022-08-26T04:36:58.504Z,9.10
2022-08-26T04:39:27.689Z,14.10
2022-08-26T04:41:57.659Z,14.60
2022-08-26T04:44:29.219Z,9.00
2022-08-26T04:46:58.823Z,12.40
2022-08-26T04:49:27.790Z,7.90
2022-08-26T04:51:56.258Z,13.50
2022-08-26T04:54:26.295Z,10.30
2022-08-26T04:56:55.333Z,6.70
2022-08-26T04:59:25.339Z,6.10
2022-08-26T05:04:49.291Z,6.10
2022-08-26T05:07:20.353Z,6.30
2022-08-26T05:09:49.752Z,6.80
2022-08-26T05:12:18.648Z,6.80
2022-08-26T05:14:47.467Z,8.10
2022-08-26T05:17:15.966Z,7.60
2022-08-26T05:19:44.972Z,5.60
2022-08-26T05:22:14.082Z,10.40
2022-08-26T05:24:43.879Z,8.00
2022-08-26T05:27:13.625Z,7.20
2022-08-26T05:29:42.633Z,7.90
2022-08-26T05:32:12.750Z,9.40
2022-08-26T05:34:41.246Z,4.80
2022-08-26T05:37:11.506Z,4.30
2022-08-26T05:39:43.564Z,11.30
2022-08-26T05:42:20.186Z,14.20
2022-08-26T05:44:53.699Z,7.70
2022-08-26T05:47:26.425Z,6.80
2022-08-26T05:49:56.316Z,12.90
2022-08-26T05:52:26.092Z,9.20
2022-08-26T05:54:55.312Z,11.10
2022-08-26T05:57:23.910Z,13.00
2022-08-26T05:59:53.107Z,8.80
2022-08-26T06:02:22.127Z,7.30
2022-08-26T06:04:50.433Z,5.60
2022-08-26T06:07:40.618Z,8.50
2022-08-26T06:10:32.516Z,9.50
2022-08-26T06:13:09.294Z,29.30
2022-08-26T06:15:46.149Z,7.50
2022-08-26T06:18:17.501Z,8.70
2022-08-26T06:20:57.120Z,9.40
2022-08-26T06:23:48.005Z,7.40
2022-08-26T06:26:16.945Z,9.90
2022-08-26T06:28:45.851Z,5.50
2022-08-26T06:31:15.823Z,9.70
2022-08-26T06:33:45.559Z,7.80
2022-08-26T06:36:25.521Z,5.60
2022-08-26T06:38:56.089Z,6.80
2022-08-26T06:41:25.945Z,10.50
2022-08-26T06:43:54.374Z,6.30
2022-08-26T06:46:23.016Z,9.70
2022-08-26T06:48:55.708Z,7.90
2022-08-26T06:51:36.039Z,6.50
2022-08-26T06:54:06.218Z,6.60
2022-08-26T06:56:41.824Z,6.30
2022-08-26T06:59:12.112Z,13.10
2022-08-26T07:01:46.381Z,10.60
2022-08-26T07:04:22.163Z,5.20
2022-08-26T07:06:53.711Z,8.30
2022-08-26T07:09:25.545Z,10.10
2022-08-26T07:11:58.556Z,6.80
2022-08-26T07:14:27.062Z,6.00
2022-08-26T07:16:55.650Z,10.70
2022-08-26T07:19:30.464Z,7.90
2022-08-26T07:22:04.720Z,9.20
2022-08-26T07:24:36.829Z,6.50
2022-08-26T07:27:07.483Z,7.70
2022-08-26T07:29:39.517Z,7.20
2022-08-26T07:32:10.056Z,5.40
2022-08-26T07:34:39.164Z,7.20
2022-08-26T07:37:08.696Z,6.00
2022-08-26T07:39:37.880Z,9.50
2022-08-26T07:42:13.264Z,11.50
2022-08-26T07:44:43.581Z,5.30
2022-08-26T07:47:25.827Z,8.00
2022-08-26T07:49:58.078Z,7.10
2022-08-26T07:52:28.968Z,6.50
2022-08-26T07:54:59.402Z,5.80
2022-08-26T07:57:28.855Z,8.20
2022-08-26T07:59:57.569Z,8.70
2022-08-26T08:02:27.408Z,6.40
2022-08-26T08:04:57.908Z,10.50
2022-08-26T08:07:44.992Z,6.60
2022-08-26T08:10:18.708Z,6.30
2022-08-26T08:12:50.489Z,8.40
2022-08-26T08:15:21.927Z,6.80
2022-08-26T08:17:51.622Z,14.80
2022-08-26T08:20:22.252Z,5.20
2022-08-26T08:22:52.919Z,11.00
2022-08-26T08:25:23.500Z,7.60
2022-08-26T08:27:51.856Z,5.10
2022-08-26T08:30:23.024Z,7.00
2022-08-26T08:32:52.587Z,4.80
2022-08-26T08:35:22.895Z,7.60
2022-08-26T08:37:54.527Z,6.20
2022-08-26T08:40:26.458Z,4.70
2022-08-26T08:43:11.784Z,8.20
2022-08-26T08:45:49.746Z,7.80
2022-08-26T08:48:35.080Z,8.80
2022-08-26T08:51:30.140Z,11.80
2022-08-26T08:54:00.360Z,9.30
2022-08-26T08:56:45.021Z,10.30
2022-08-26T08:59:18.177Z,5.30
2022-08-26T09:05:05.718Z,18.70
2022-08-26T09:07:49.021Z,10.20
2022-08-26T09:13:13.720Z,10.20
2022-08-26T09:16:14.158Z,10.10
2022-08-26T09:19:11.318Z,9.70
2022-08-26T09:21:39.736Z,7.10
2022-08-26T09:24:08.413Z,5.90
2022-08-26T09:26:39.718Z,6.20
2022-08-26T09:29:14.654Z,11.90
2022-08-26T09:31:43.043Z,7.80
2022-08-26T09:34:19.591Z,10.10
2022-08-26T09:36:51.564Z,8.50
2022-08-26T09:39:31.256Z,10.30
2022-08-26T09:42:07.677Z,10.60
2022-08-26T09:44:52.922Z,8.60
2022-08-26T09:47:52.836Z,7.30
2022-08-26T09:50:55.644Z,3.90
2022-08-26T09:53:30.508Z,9.40
2022-08-26T09:56:27.581Z,14.70
2022-08-26T09:58:57.776Z,7.40
2022-08-26T10:01:38.442Z,6.00
2022-08-26T10:04:15.041Z,9.10
2022-08-26T10:07:05.287Z,7.60
2022-08-26T10:09:39.133Z,10.10
2022-08-26T10:12:13.472Z,12.20
2022-08-26T10:15:12.080Z,7.10
2022-08-26T10:17:53.573Z,10.20
2022-08-26T10:20:28.929Z,8.80
2022-08-26T10:23:03.400Z,9.40
2022-08-26T10:25:47.396Z,6.10
2022-08-26T10:28:35.581Z,7.40
2022-08-26T10:31:29.660Z,8.50
2022-08-26T10:34:07.296Z,8.40
2022-08-26T10:42:35.558Z,9.20
2022-08-26T10:45:08.037Z,11.20
2022-08-26T10:47:52.364Z,11.40
2022-08-26T10:50:25.147Z,7.80
2022-08-26T10:53:04.084Z,15.40
2022-08-26T10:55:57.413Z,19.90
2022-08-26T11:01:40.752Z,14.60
2022-08-26T11:04:16.782Z,13.30
2022-08-26T11:06:46.258Z,20.20
2022-08-26T11:09:45.997Z,18.60
2022-08-26T11:12:36.342Z,21.80
2022-08-26T11:15:09.066Z,20.20
2022-08-26T11:20:33.481Z,23.20
2022-08-26T11:23:14.570Z,18.80
2022-08-26T11:26:01.100Z,20.40
2022-08-26T11:28:45.651Z,15.90
2022-08-26T11:31:25.438Z,17.60
2022-08-26T11:34:07.261Z,23.60
2022-08-26T11:36:47.951Z,22.90
2022-08-26T11:39:28.991Z,19.10
2022-08-26T11:42:05.395Z,28.30
2022-08-26T11:44:49.580Z,37.00
2022-08-26T11:47:29.456Z,28.20
2022-08-26T11:50:17.643Z,42.80
2022-08-26T11:53:07.658Z,34.40
2022-08-26T11:55:42.873Z,28.20
2022-08-26T11:58:15.048Z,23.20
2022-08-26T12:00:46.315Z,33.20
2022-08-26T12:03:43.988Z,24.90
2022-08-26T12:06:16.864Z,18.20
2022-08-26T12:08:47.656Z,37.70
2022-08-26T12:11:32.032Z,26.20
2022-08-26T12:14:07.255Z,35.20
2022-08-26T12:16:39.669Z,22.60
2022-08-26T12:19:32.911Z,21.50
2022-08-26T12:22:27.805Z,21.50
2022-08-26T12:24:59.539Z,26.10
2022-08-26T12:27:42.863Z,23.90
2022-08-26T12:30:18.025Z,24.50
2022-08-26T12:33:03.374Z,23.50
2022-08-26T12:35:56.561Z,19.40
2022-08-26T12:38:27.614Z,28.10
2022-08-26T12:40:57.179Z,23.60
2022-08-26T12:43:38.572Z,26.70
2022-08-26T12:46:10.568Z,26.10
2022-08-26T12:48:42.905Z,36.40
2022-08-26T12:51:24.939Z,19.60
2022-08-26T12:53:54.382Z,26.00
2022-08-26T12:56:40.732Z,37.50
2022-08-26T12:59:29.264Z,30.80
2022-08-26T13:01:57.697Z,34.80
2022-08-26T13:04:40.485Z,25.80
2022-08-26T13:07:18.289Z,43.30
2022-08-26T13:09:47.326Z,44.20
2022-08-26T13:12:37.469Z,45.80
2022-08-26T13:15:07.203Z,33.30
2022-08-26T13:17:36.150Z,43.30
2022-08-26T13:20:05.040Z,33.80
2022-08-26T13:22:34.456Z,46.70
2022-08-26T13:25:03.047Z,51.90
2022-08-26T13:27:31.434Z,50.30
2022-08-26T13:30:00.417Z,31.80
2022-08-26T13:32:29.297Z,32.20
2022-08-26T13:34:57.985Z,45.50
2022-08-26T13:37:35.043Z,54.30
2022-08-26T13:40:07.052Z,33.00
2022-08-26T13:42:35.744Z,40.30
2022-08-26T13:45:06.355Z,32.40
2022-08-26T13:47:35.099Z,43.40
2022-08-26T13:50:04.706Z,40.50
2022-08-26T13:52:33.048Z,41.60
2022-08-26T13:55:01.681Z,29.10
2022-08-26T13:57:30.629Z,49.60
2022-08-26T14:00:01.787Z,35.20
2022-08-26T14:02:37.983Z,35.90
2022-08-26T14:05:07.175Z,45.10
2022-08-26T14:07:35.509Z,40.10
2022-08-26T14:10:04.116Z,39.60
2022-08-26T14:12:32.473Z,54.00
2022-08-26T14:15:00.780Z,63.60
2022-08-26T14:17:30.765Z,42.80
2022-08-26T14:19:59.314Z,37.80
2022-08-26T14:22:28.084Z,47.00
2022-08-26T14:24:56.780Z,31.60
2022-08-26T14:27:25.579Z,44.60
2022-08-26T14:29:54.468Z,48.00
2022-08-26T14:32:27.313Z,51.80
2022-08-26T14:34:56.220Z,38.60
2022-08-26T14:37:24.848Z,40.10
2022-08-26T14:40:31.360Z,41.00
2022-08-26T14:43:02.639Z,38.80
2022-08-26T14:45:34.769Z,44.00
2022-08-26T14:48:05.688Z,42.00
2022-08-26T14:50:33.887Z,51.50
2022-08-26T14:53:20.408Z,47.50
2022-08-26T14:55:48.865Z,49.40
2022-08-26T14:58:17.065Z,47.00
2022-08-26T15:00:45.222Z,44.00
2022-08-26T15:05:48.448Z,42.50
2022-08-26T15:08:16.926Z,57.70
2022-08-26T15:10:45.000Z,42.30
2022-08-26T15:13:13.107Z,43.70
2022-08-26T15:15:41.263Z,50.80
2022-08-26T15:18:10.106Z,65.60
2022-08-26T15:20:38.703Z,52.20
2022-08-26T15:23:07.469Z,52.60
2022-08-26T15:25:35.767Z,40.80
2022-08-26T15:28:04.175Z,38.60
2022-08-26T15:30:33.648Z,48.90
2022-08-26T15:33:01.950Z,51.90
2022-08-26T15:35:30.111Z,42.80
2022-08-26T15:38:04.216Z,68.00
2022-08-26T15:40:32.353Z,38.50
2022-08-26T15:43:17.709Z,38.90
2022-08-26T15:45:46.885Z,44.20
2022-08-26T15:48:16.196Z,42.00
2022-08-26T15:50:56.518Z,59.40
2022-08-26T15:53:24.923Z,50.50
2022-08-26T15:55:58.980Z,51.00
2022-08-26T15:58:28.586Z,47.90
2022-08-26T16:00:56.974Z,57.60
2022-08-26T16:03:25.143Z,43.50
2022-08-26T16:05:53.543Z,48.60
2022-08-26T16:08:22.534Z,43.00
2022-08-26T16:10:51.497Z,44.40
2022-08-26T16:13:20.826Z,55.80
2022-08-26T16:15:52.689Z,47.70
2022-08-26T16:18:20.877Z,55.40
2022-08-26T16:21:12.391Z,41.40
2022-08-26T16:23:45.179Z,39.00
2022-08-26T16:26:20.773Z,43.30
2022-08-26T16:28:49.239Z,41.20
2022-08-26T16:31:18.116Z,35.60
2022-08-26T16:33:46.398Z,38.20
2022-08-26T16:36:14.963Z,38.90
2022-08-26T16:38:50.247Z,45.30
2022-08-26T16:41:19.365Z,47.10
2022-08-26T16:43:47.863Z,46.20
2022-08-26T16:46:16.360Z,47.90
2022-08-26T16:48:45.709Z,34.50
2022-08-26T16:51:17.021Z,40.70
2022-08-26T16:53:45.964Z,36.10
2022-08-26T16:56:16.521Z,44.30
2022-08-26T16:58:44.858Z,50.10
2022-08-26T17:01:13.092Z,50.80
2022-08-26T17:03:41.743Z,39.90
2022-08-26T17:06:10.358Z,30.60
2022-08-26T17:08:40.137Z,37.00
2022-08-26T17:11:09.114Z,38.50
2022-08-26T17:13:39.333Z,39.50
2022-08-26T17:16:10.235Z,32.90
2022-08-26T17:18:39.025Z,38.60
2022-08-26T17:21:10.485Z,38.10
2022-08-26T17:23:41.092Z,52.10
2022-08-26T17:26:10.889Z,29.70
2022-08-26T17:28:39.736Z,31.30
2022-08-26T17:31:09.555Z,38.10
2022-08-26T17:33:38.210Z,42.00
2022-08-26T17:36:08.077Z,35.90
2022-08-26T17:38:37.853Z,32.70
2022-08-26T17:41:14.934Z,36.10
2022-08-26T17:43:43.929Z,38.10
2022-08-26T17:46:12.920Z,42.70
2022-08-26T17:48:41.426Z,42.50
2022-08-26T17:51:15.520Z,28.20
2022-08-26T17:53:43.948Z,34.90
2022-08-26T17:56:14.846Z,57.00
2022-08-26T17:58:50.940Z,41.60
2022-08-26T18:01:21.793Z,43.80
2022-08-26T18:03:50.379Z,47.10
2022-08-26T18:06:20.842Z,46.30
2022-08-26T18:08:49.054Z,38.30
2022-08-26T18:11:20.511Z,45.80
2022-08-26T18:13:55.609Z,38.40
2022-08-26T18:19:11.422Z,28.20
2022-08-26T18:21:39.570Z,26.50
2022-08-26T18:24:12.153Z,33.60
2022-08-26T18:26:48.374Z,39.20
2022-08-26T18:29:18.592Z,37.10
2022-08-26T18:31:48.658Z,28.20
2022-08-26T18:34:17.226Z,34.80
2022-08-26T18:36:46.162Z,26.00
2022-08-26T18:39:15.730Z,39.40
2022-08-26T18:41:47.608Z,40.10
2022-08-26T18:44:18.883Z,42.30
2022-08-26T18:46:47.779Z,29.10
2022-08-26T18:49:18.124Z,32.30
2022-08-26T18:51:47.940Z,35.90
2022-08-26T18:54:16.362Z,23.30
2022-08-26T18:56:45.342Z,29.80
2022-08-26T18:59:14.133Z,40.80
2022-08-26T19:01:43.414Z,40.30
2022-08-26T19:04:15.292Z,47.80
2022-08-26T19:06:47.801Z,24.90
2022-08-26T19:09:17.862Z,40.60
2022-08-26T19:11:47.013Z,38.80
2022-08-26T19:14:18.673Z,32.00
2022-08-26T19:16:48.764Z,43.50
2022-08-26T19:19:17.438Z,42.10
2022-08-26T19:21:47.104Z,28.30
2022-08-26T19:24:17.696Z,24.20
2022-08-26T19:26:57.702Z,36.40
2022-08-26T19:29:29.708Z,33.30
2022-08-26T19:31:58.148Z,33.90
2022-08-26T19:34:26.730Z,30.70
2022-08-26T19:36:57.009Z,29.70
2022-08-26T19:39:26.535Z,32.20
2022-08-26T19:41:56.112Z,31.30
2022-08-26T19:44:42.795Z,26.80
2022-08-26T19:47:12.004Z,45.20
2022-08-26T19:49:40.293Z,31.00
2022-08-26T19:52:09.051Z,27.50
2022-08-26T19:54:38.446Z,25.30
2022-08-26T19:57:06.782Z,24.50
2022-08-26T19:59:36.852Z,29.60
2022-08-26T20:02:10.048Z,26.40
2022-08-26T20:04:40.075Z,20.00
2022-08-26T20:07:09.325Z,15.20
2022-08-26T20:09:37.870Z,27.90
2022-08-26T20:12:07.089Z,15.10
2022-08-26T20:14:36.422Z,18.80
2022-08-26T20:17:05.866Z,22.80
2022-08-26T20:19:53.086Z,18.20
2022-08-26T20:22:21.862Z,13.00
2022-08-26T20:24:50.042Z,21.00
2022-08-26T20:27:18.232Z,16.70
2022-08-26T20:29:46.376Z,25.00
2022-08-26T20:32:14.845Z,15.80
2022-08-26T20:34:43.073Z,23.00
2022-08-26T20:37:12.395Z,18.00
2022-08-26T20:39:41.488Z,12.50
2022-08-26T20:42:20.291Z,12.90
2022-08-26T20:44:54.430Z,21.60
2022-08-26T20:47:23.432Z,15.20
2022-08-26T20:49:52.578Z,16.20
2022-08-26T20:52:20.822Z,17.00
2022-08-26T20:54:49.052Z,14.60
2022-08-26T20:57:17.247Z,17.70
2022-08-26T20:59:45.395Z,19.80
2022-08-26T21:02:13.651Z,14.70
2022-08-26T21:04:41.815Z,15.70
2022-08-26T21:07:09.956Z,23.80
2022-08-26T21:09:38.268Z,11.70
2022-08-26T21:12:06.644Z,17.50
2022-08-26T21:14:34.771Z,13.20
2022-08-26T21:17:03.238Z,14.80
2022-08-26T21:19:31.445Z,16.30
2022-08-26T21:21:59.700Z,17.30
2022-08-26T21:24:27.901Z,25.90
2022-08-26T21:26:56.058Z,19.60
2022-08-26T21:29:24.166Z,15.30
2022-08-26T21:31:52.433Z,14.70
2022-08-26T21:34:20.873Z,18.90
2022-08-26T21:36:49.250Z,16.30
2022-08-26T21:39:18.081Z,16.60
2022-08-26T21:41:47.359Z,18.80
2022-08-26T21:44:18.205Z,9.80
2022-08-26T21:46:47.183Z,14.20
2022-08-26T21:49:16.479Z,15.20
2022-08-26T21:51:48.064Z,15.60
2022-08-26T21:54:18.199Z,19.60
2022-08-26T21:56:47.376Z,14.30
2022-08-26T21:59:18.029Z,15.70
2022-08-26T22:01:46.910Z,13.10
2022-08-26T22:04:16.722Z,20.30
2022-08-26T22:06:48.858Z,22.50
2022-08-26T22:09:20.734Z,20.10
2022-08-26T22:11:49.992Z,17.50
2022-08-26T22:14:22.262Z,16.80
2022-08-26T22:16:51.067Z,20.80
2022-08-26T22:19:21.748Z,17.60
2022-08-26T22:21:54.031Z,18.70
2022-08-26T22:24:24.838Z,14.50
2022-08-26T22:26:54.375Z,18.00
2022-08-26T22:29:22.705Z,18.10
2022-08-26T22:31:51.025Z,17.50
2022-08-26T22:34:21.218Z,14.30
2022-08-26T22:36:50.064Z,12.20
2022-08-26T22:39:22.084Z,12.50
2022-08-26T22:41:51.375Z,14.20
2022-08-26T22:44:21.627Z,12.20
2022-08-26T22:46:54.181Z,18.10
2022-08-26T22:49:23.230Z,15.60
2022-08-26T22:51:51.419Z,15.50
2022-08-26T22:54:19.575Z,20.70
2022-08-26T22:56:47.893Z,18.90
2022-08-26T22:59:17.006Z,17.90
2022-08-26T23:01:47.007Z,11.90
2022-08-26T23:04:15.289Z,16.10
2022-08-26T23:06:47.344Z,18.30
2022-08-26T23:09:18.707Z,17.70
2022-08-26T23:11:48.643Z,20.60
2022-08-26T23:14:19.165Z,10.30
2022-08-26T23:16:48.098Z,16.30
2022-08-26T23:19:19.509Z,20.20
2022-08-26T23:21:49.685Z,15.90
2022-08-26T23:24:18.462Z,26.70
2022-08-26T23:26:47.163Z,21.40
2022-08-26T23:29:16.112Z,14.80
2022-08-26T23:31:44.976Z,14.00
2022-08-26T23:34:33.449Z,15.80
2022-08-26T23:37:02.347Z,12.70
2022-08-26T23:39:33.373Z,14.90
2022-08-26T23:42:01.836Z,17.20
2022-08-26T23:44:30.878Z,13.30
2022-08-26T23:46:59.756Z,16.60
2022-08-26T23:49:29.074Z,23.30
2022-08-26T23:52:16.366Z,17.70
2022-08-26T23:54:44.737Z,16.90
2022-08-26T23:57:12.841Z,11.40
2022-08-26T23:59:41.359Z,13.30
